Suez, Egypt
Current Conditions -  °F | °C
As of 12:00 AM on Friday 24 Oct 2014 (Local Time) from HECA Reporting Station
Clear Clear  
Wind Chill: 72°   Ceiling: Unl
Heat Index: 72°   Visibility: 6mi
Dew Point: 41°   Wind: 7mph
Humidity: 33%   Direction: 110°ESE
Pressure: 30"   Gusts: NA
Location:  29.58°N, 32.33°E
Report Text: HECA 232200Z 11006KT CAVOK 22/05 Q1016 NOSIG
Loading
Personal Weather Stations






























Interactive Weather Map
Tropical Storm Tracking
New forecast layout! Learn more

10-Day Weather Forecast

Advertisements
Track Severe Weather on mobile